createdAt,value
2019-03-21T00:02:24.013Z,20.72
2019-03-21T00:04:53.872Z,20.74
2019-03-21T00:07:22.371Z,20.84
2019-03-21T00:10:08.684Z,20.86
2019-03-21T00:12:37.121Z,20.90
2019-03-21T00:15:13.683Z,20.92
2019-03-21T00:17:46.875Z,20.92
2019-03-21T00:20:16.083Z,20.90
2019-03-21T00:22:44.696Z,20.92
2019-03-21T00:25:14.045Z,20.97
2019-03-21T00:27:42.521Z,20.96
2019-03-21T00:30:12.888Z,20.97
2019-03-21T00:32:41.320Z,20.98
2019-03-21T00:35:09.876Z,20.97
2019-03-21T00:37:38.342Z,20.97
2019-03-21T00:40:08.128Z,20.96
2019-03-21T00:42:36.597Z,20.96
2019-03-21T00:45:05.413Z,20.97
2019-03-21T00:47:33.928Z,20.97
2019-03-21T00:50:02.360Z,20.97
2019-03-21T00:52:30.839Z,20.99
2019-03-21T00:54:59.266Z,21.01
2019-03-21T00:57:27.734Z,20.98
2019-03-21T00:59:56.165Z,20.97
2019-03-21T01:02:24.722Z,20.96
2019-03-21T01:04:53.221Z,20.96
2019-03-21T01:07:21.661Z,20.95
2019-03-21T01:09:50.185Z,20.96
2019-03-21T01:12:18.716Z,20.96
2019-03-21T01:15:06.083Z,20.95
2019-03-21T01:17:34.484Z,20.98
2019-03-21T01:20:02.940Z,20.97
2019-03-21T01:22:31.450Z,20.97
2019-03-21T01:24:59.877Z,20.97
2019-03-21T01:27:28.309Z,20.94
2019-03-21T01:29:56.785Z,20.97
2019-03-21T01:32:25.284Z,20.94
2019-03-21T01:34:53.800Z,20.93
2019-03-21T01:37:22.304Z,20.92
2019-03-21T01:39:50.744Z,20.94
2019-03-21T01:42:19.268Z,20.96
2019-03-21T01:44:47.802Z,20.94
2019-03-21T01:47:16.248Z,20.91
2019-03-21T01:49:44.745Z,20.90
2019-03-21T01:52:13.203Z,20.92
2019-03-21T01:54:41.648Z,20.91
2019-03-21T01:57:10.186Z,20.89
2019-03-21T01:59:57.597Z,20.89
2019-03-21T02:02:26.033Z,20.87
2019-03-21T02:04:54.495Z,20.88
2019-03-21T02:07:23.038Z,20.89
2019-03-21T02:09:51.494Z,20.89
2019-03-21T02:12:20.044Z,20.89
2019-03-21T02:14:52.333Z,20.88
2019-03-21T02:17:18.753Z,20.89
2019-03-21T02:19:47.246Z,20.88
2019-03-21T02:22:15.789Z,20.85
2019-03-21T02:24:44.325Z,20.85
2019-03-21T02:27:12.787Z,20.86
2019-03-21T02:29:41.253Z,20.83
2019-03-21T02:32:09.758Z,20.86
2019-03-21T02:34:57.062Z,20.85
2019-03-21T02:37:25.517Z,20.86
2019-03-21T02:40:00.001Z,20.84
2019-03-21T02:42:24.187Z,20.84
2019-03-21T02:45:07.218Z,20.82
2019-03-21T02:47:22.890Z,20.84
2019-03-21T02:49:51.377Z,20.80
2019-03-21T02:52:19.944Z,20.81
2019-03-21T02:57:35.892Z,20.85
2019-03-21T03:00:04.683Z,20.84
2019-03-21T03:02:33.172Z,20.82
2019-03-21T03:05:01.760Z,20.81
2019-03-21T03:07:30.215Z,20.79
2019-03-21T03:09:58.721Z,20.77
2019-03-21T03:12:27.196Z,20.76
2019-03-21T03:14:55.685Z,20.75
2019-03-21T03:17:24.179Z,20.77
2019-03-21T03:19:52.674Z,20.79
2019-03-21T03:22:21.157Z,20.76
2019-03-21T03:24:49.645Z,20.76
2019-03-21T03:27:18.111Z,20.76
2019-03-21T03:29:46.555Z,20.74
2019-03-21T03:32:15.027Z,20.74
2019-03-21T03:34:43.616Z,20.73
2019-03-21T03:37:12.120Z,20.74
2019-03-21T03:39:40.593Z,20.72
2019-03-21T03:42:09.114Z,20.73
2019-03-21T03:44:37.618Z,20.73
2019-03-21T03:47:06.077Z,20.73
2019-03-21T03:49:34.526Z,20.73
2019-03-21T03:52:03.023Z,20.70
2019-03-21T03:54:31.503Z,20.68
2019-03-21T03:57:00.038Z,20.68
2019-03-21T03:59:28.534Z,20.51
2019-03-21T04:02:15.930Z,20.69
2019-03-21T04:04:44.384Z,20.69
2019-03-21T04:07:12.885Z,20.68
2019-03-21T04:09:41.354Z,20.67
2019-03-21T04:12:09.840Z,20.67
2019-03-21T04:14:38.355Z,20.65
2019-03-21T04:17:06.865Z,20.61
2019-03-21T04:19:54.282Z,20.60
2019-03-21T04:22:22.739Z,20.60
2019-03-21T04:24:51.215Z,20.60
2019-03-21T04:27:19.665Z,20.63
2019-03-21T04:30:06.943Z,20.60
2019-03-21T04:32:35.353Z,20.60
2019-03-21T04:35:03.866Z,20.60
2019-03-21T04:37:51.197Z,20.61
2019-03-21T04:40:19.686Z,20.57
2019-03-21T04:42:48.108Z,20.56
2019-03-21T04:45:17.496Z,20.56
2019-03-21T04:47:45.947Z,20.57
2019-03-21T04:50:33.219Z,20.59
2019-03-21T04:53:01.781Z,20.59
2019-03-21T04:55:30.254Z,20.59
2019-03-21T04:58:17.501Z,20.64
2019-03-21T05:00:45.991Z,20.59
2019-03-21T05:03:14.514Z,20.47
2019-03-21T05:06:01.954Z,20.58
2019-03-21T05:08:30.466Z,20.56
2019-03-21T05:10:58.879Z,19.94
2019-03-21T05:13:27.361Z,20.57
2019-03-21T05:15:55.860Z,20.56
2019-03-21T05:18:26.237Z,20.55
2019-03-21T05:21:13.503Z,20.50
2019-03-21T05:26:29.388Z,20.49
2019-03-21T05:28:57.808Z,20.47
2019-03-21T05:31:27.886Z,20.48
2019-03-21T05:33:56.335Z,20.49
2019-03-21T05:36:24.783Z,20.42
2019-03-21T05:39:12.037Z,20.44
2019-03-21T05:41:40.509Z,20.44
2019-03-21T05:44:11.613Z,20.45
2019-03-21T05:46:58.954Z,20.46
2019-03-21T05:49:27.330Z,20.43
2019-03-21T05:52:15.678Z,20.43
2019-03-21T05:54:44.085Z,20.44
2019-03-21T05:57:12.538Z,20.43
2019-03-21T05:59:40.976Z,20.42
2019-03-21T06:02:28.342Z,20.43
2019-03-21T06:07:46.333Z,20.42
2019-03-21T06:10:15.315Z,20.46
2019-03-21T06:12:43.746Z,20.47
2019-03-21T06:15:12.591Z,20.47
2019-03-21T06:17:41.045Z,20.48
2019-03-21T06:20:22.581Z,20.45
2019-03-21T06:23:09.796Z,20.45
2019-03-21T06:25:45.901Z,20.45
2019-03-21T06:28:14.324Z,20.25
2019-03-21T06:30:42.781Z,20.44
2019-03-21T06:33:11.288Z,20.44
2019-03-21T06:35:39.759Z,20.44
2019-03-21T06:38:08.177Z,20.46
2019-03-21T06:40:36.627Z,20.45
2019-03-21T06:43:05.104Z,20.70
2019-03-21T06:45:33.569Z,20.81
2019-03-21T06:48:02.002Z,20.85
2019-03-21T06:50:30.499Z,20.82
2019-03-21T06:52:59.022Z,20.95
2019-03-21T06:55:27.481Z,20.91
2019-03-21T06:57:55.941Z,20.91
2019-03-21T07:00:25.099Z,20.99
2019-03-21T07:02:53.637Z,21.01
2019-03-21T07:05:22.054Z,21.05
2019-03-21T07:07:50.501Z,21.02
2019-03-21T07:10:18.983Z,21.02
2019-03-21T07:12:47.489Z,21.05
2019-03-21T07:15:15.955Z,21.08
2019-03-21T07:17:44.388Z,21.16
2019-03-21T07:20:12.977Z,21.19
2019-03-21T07:22:41.449Z,21.18
2019-03-21T07:25:09.923Z,21.21
2019-03-21T07:27:38.356Z,21.25
2019-03-21T07:30:07.004Z,21.25
2019-03-21T07:32:35.523Z,21.27
2019-03-21T07:35:04.033Z,21.29
2019-03-21T07:37:32.489Z,21.32
2019-03-21T07:40:01.015Z,21.35
2019-03-21T07:42:29.434Z,21.34
2019-03-21T07:44:57.833Z,21.37
2019-03-21T07:47:26.289Z,21.36
2019-03-21T07:49:54.809Z,21.36
2019-03-21T07:52:23.235Z,21.38
2019-03-21T07:54:51.870Z,21.39
2019-03-21T07:57:20.285Z,21.37
2019-03-21T07:59:48.752Z,21.33
2019-03-21T08:02:17.296Z,21.34
2019-03-21T08:04:45.734Z,21.32
2019-03-21T08:07:14.221Z,21.35
2019-03-21T08:09:42.735Z,21.33
2019-03-21T08:12:11.317Z,21.33
2019-03-21T08:14:39.751Z,21.33
2019-03-21T08:17:08.219Z,21.34
2019-03-21T08:19:36.631Z,21.41
2019-03-21T08:22:05.052Z,21.40
2019-03-21T08:24:33.505Z,21.42
2019-03-21T08:27:02.057Z,21.42
2019-03-21T08:29:30.510Z,21.42
2019-03-21T08:31:58.979Z,21.47
2019-03-21T08:34:27.390Z,21.49
2019-03-21T08:36:55.954Z,21.42
2019-03-21T08:39:24.447Z,21.48
2019-03-21T08:41:53.033Z,21.49
2019-03-21T08:44:21.559Z,21.54
2019-03-21T08:46:50.180Z,21.57
2019-03-21T08:49:18.837Z,21.57
2019-03-21T08:51:47.348Z,21.67
2019-03-21T08:54:15.906Z,21.61
2019-03-21T08:56:44.541Z,21.63
2019-03-21T08:59:13.210Z,21.66
2019-03-21T09:01:41.765Z,21.68
2019-03-21T09:04:10.366Z,21.69
2019-03-21T09:06:38.935Z,21.71
2019-03-21T09:09:08.439Z,21.72
2019-03-21T09:11:36.967Z,21.72
2019-03-21T09:14:05.524Z,21.71
2019-03-21T09:16:34.129Z,21.71
2019-03-21T09:19:02.663Z,21.77
2019-03-21T09:21:31.282Z,21.78
2019-03-21T09:23:59.773Z,21.80
2019-03-21T09:26:28.346Z,21.75
2019-03-21T09:28:56.846Z,21.87
2019-03-21T09:31:25.384Z,21.85
2019-03-21T09:33:53.968Z,21.87
2019-03-21T09:36:22.494Z,21.85
2019-03-21T09:38:50.998Z,21.80
2019-03-21T09:41:19.514Z,21.79
2019-03-21T09:43:48.008Z,21.81
2019-03-21T09:46:16.493Z,21.79
2019-03-21T09:48:45.056Z,21.79
2019-03-21T09:51:13.545Z,21.85
2019-03-21T09:53:42.119Z,21.79
2019-03-21T09:56:10.605Z,21.81
2019-03-21T09:58:39.196Z,21.81
2019-03-21T10:01:07.652Z,21.78
2019-03-21T10:03:36.191Z,21.83
2019-03-21T10:06:04.681Z,21.82
2019-03-21T10:08:33.166Z,21.82
2019-03-21T10:11:01.713Z,21.78
2019-03-21T10:13:30.298Z,21.78
2019-03-21T10:15:58.778Z,21.79
2019-03-21T10:18:27.228Z,21.79
2019-03-21T10:20:55.715Z,21.75
2019-03-21T10:23:24.217Z,21.82
2019-03-21T10:25:52.682Z,21.78
2019-03-21T10:28:21.185Z,21.85
2019-03-21T10:30:49.709Z,21.88
2019-03-21T10:33:18.209Z,21.87
2019-03-21T10:35:46.682Z,21.89
2019-03-21T10:38:15.222Z,21.90
2019-03-21T10:40:43.691Z,21.92
2019-03-21T10:43:12.186Z,21.94
2019-03-21T10:45:40.744Z,21.90
2019-03-21T10:48:09.336Z,21.94
2019-03-21T10:50:38.505Z,21.95
2019-03-21T10:53:07.538Z,21.93
2019-03-21T10:55:36.101Z,21.92
2019-03-21T10:58:04.966Z,21.88
2019-03-21T11:00:33.489Z,21.81
2019-03-21T11:03:02.032Z,21.87
2019-03-21T11:05:30.575Z,21.91
2019-03-21T11:07:59.043Z,21.93
2019-03-21T11:10:27.624Z,21.92
2019-03-21T11:12:56.198Z,21.92
2019-03-21T11:15:24.680Z,21.94
2019-03-21T11:17:53.181Z,22.00
2019-03-21T11:20:26.997Z,21.95
2019-03-21T11:22:55.862Z,22.06
2019-03-21T11:25:24.533Z,22.07
2019-03-21T11:27:53.104Z,22.10
2019-03-21T11:30:28.257Z,22.09
2019-03-21T11:32:56.801Z,22.11
2019-03-21T11:35:25.319Z,22.09
2019-03-21T11:37:54.000Z,22.07
2019-03-21T11:40:22.650Z,22.06
2019-03-21T11:42:51.170Z,22.05
2019-03-21T11:45:19.667Z,22.07
2019-03-21T11:47:48.328Z,22.09
2019-03-21T11:50:16.883Z,22.10
2019-03-21T11:52:45.501Z,22.13
2019-03-21T11:55:14.029Z,22.13
2019-03-21T11:57:42.629Z,22.07
2019-03-21T12:00:11.198Z,22.06
2019-03-21T12:02:39.757Z,22.06
2019-03-21T12:05:08.380Z,22.06
2019-03-21T12:07:36.919Z,22.10
2019-03-21T12:10:05.586Z,22.16
2019-03-21T12:12:34.217Z,22.18
2019-03-21T12:15:04.724Z,22.17
2019-03-21T12:17:33.289Z,22.14
2019-03-21T12:20:01.880Z,22.14
2019-03-21T12:22:30.618Z,22.17
2019-03-21T12:24:59.278Z,22.19
2019-03-21T12:27:27.775Z,22.18
2019-03-21T12:29:56.364Z,22.22
2019-03-21T12:32:25.074Z,22.23
2019-03-21T12:34:53.684Z,22.25
2019-03-21T12:37:22.188Z,22.26
2019-03-21T12:39:50.761Z,22.27
2019-03-21T12:42:19.307Z,22.26
2019-03-21T12:44:49.537Z,22.28
2019-03-21T12:47:18.369Z,22.31
2019-03-21T12:49:46.962Z,22.29
2019-03-21T12:52:23.556Z,22.29
2019-03-21T12:54:52.133Z,22.31
2019-03-21T12:57:23.035Z,22.28
2019-03-21T12:59:51.564Z,22.34
2019-03-21T13:02:32.076Z,22.33
2019-03-21T13:04:52.350Z,22.36
2019-03-21T13:07:21.333Z,22.32
2019-03-21T13:09:50.043Z,22.40
2019-03-21T13:12:18.671Z,22.43
2019-03-21T13:14:47.187Z,22.41
2019-03-21T13:17:15.894Z,22.39
2019-03-21T13:19:44.472Z,22.37
2019-03-21T13:22:13.024Z,22.39
2019-03-21T13:24:41.636Z,22.39
2019-03-21T13:27:10.253Z,22.40
2019-03-21T13:29:38.874Z,22.42
2019-03-21T13:32:07.381Z,22.39
2019-03-21T13:34:36.110Z,22.41
2019-03-21T13:37:06.855Z,22.40
2019-03-21T13:39:35.392Z,22.42
2019-03-21T13:42:04.039Z,22.48
2019-03-21T13:44:32.541Z,22.50
2019-03-21T13:47:01.263Z,22.49
2019-03-21T13:49:29.743Z,22.48
2019-03-21T13:51:58.233Z,22.48
2019-03-21T13:54:26.815Z,22.50
2019-03-21T13:56:55.287Z,22.47
2019-03-21T13:59:23.788Z,22.51
2019-03-21T14:01:52.397Z,22.56
2019-03-21T14:04:21.253Z,22.61
2019-03-21T14:06:49.738Z,22.59
2019-03-21T14:09:20.327Z,22.62
2019-03-21T14:11:48.397Z,22.63
2019-03-21T14:14:16.928Z,22.69
2019-03-21T14:16:45.426Z,22.68
2019-03-21T14:19:13.905Z,22.74
2019-03-21T14:21:42.467Z,22.72
2019-03-21T14:24:10.990Z,22.68
2019-03-21T14:26:39.515Z,22.62
2019-03-21T14:29:12.696Z,22.69
2019-03-21T14:31:38.064Z,22.76
2019-03-21T14:34:06.558Z,22.72
2019-03-21T14:36:35.020Z,22.75
2019-03-21T14:39:04.330Z,22.73
2019-03-21T14:41:32.807Z,22.70
2019-03-21T14:44:01.630Z,22.72
2019-03-21T14:46:30.211Z,22.78
2019-03-21T14:48:59.306Z,22.69
2019-03-21T14:51:27.976Z,22.65
2019-03-21T14:53:56.594Z,22.66
2019-03-21T14:56:25.310Z,22.65
2019-03-21T14:58:54.203Z,22.68
2019-03-21T15:01:22.788Z,22.67
2019-03-21T15:03:51.587Z,22.72
2019-03-21T15:06:20.442Z,22.71
2019-03-21T15:08:49.289Z,22.68
2019-03-21T15:11:17.978Z,22.70
2019-03-21T15:13:46.674Z,22.72
2019-03-21T15:16:15.251Z,22.69
2019-03-21T15:18:43.921Z,22.69
2019-03-21T15:21:12.510Z,22.75
2019-03-21T15:23:41.269Z,22.78
2019-03-21T15:26:09.755Z,22.74
2019-03-21T15:28:38.271Z,22.74
2019-03-21T15:31:06.767Z,22.75
2019-03-21T15:33:35.422Z,22.72
2019-03-21T15:36:06.058Z,22.77
2019-03-21T15:38:34.760Z,22.80
2019-03-21T15:41:03.798Z,22.82
2019-03-21T15:43:32.288Z,22.78
2019-03-21T15:46:00.745Z,22.73
2019-03-21T15:48:29.262Z,22.78
2019-03-21T15:51:04.439Z,22.78
2019-03-21T15:53:27.978Z,22.74
2019-03-21T15:55:56.460Z,22.72
2019-03-21T15:58:24.909Z,22.68
2019-03-21T16:00:53.358Z,22.72
2019-03-21T16:03:21.836Z,22.45
2019-03-21T16:05:50.246Z,22.74
2019-03-21T16:08:18.717Z,22.67
2019-03-21T16:10:47.286Z,22.74
2019-03-21T16:13:15.823Z,22.73
2019-03-21T16:15:44.396Z,22.70
2019-03-21T16:18:12.783Z,22.67
2019-03-21T16:20:41.400Z,22.66
2019-03-21T16:23:09.848Z,22.66
2019-03-21T16:25:38.267Z,22.64
2019-03-21T16:28:06.661Z,22.64
2019-03-21T16:30:35.107Z,22.57
2019-03-21T16:33:03.553Z,22.61
2019-03-21T16:35:32.068Z,22.62
2019-03-21T16:38:00.467Z,22.59
2019-03-21T16:40:29.055Z,22.56
2019-03-21T16:42:57.575Z,22.55
2019-03-21T16:45:25.994Z,22.53
2019-03-21T16:47:54.413Z,22.55
2019-03-21T16:50:22.865Z,22.50
2019-03-21T16:52:51.307Z,22.43
2019-03-21T16:55:19.704Z,22.51
2019-03-21T16:57:48.166Z,22.42
2019-03-21T17:00:17.986Z,22.42
2019-03-21T17:02:46.557Z,22.42
2019-03-21T17:05:14.994Z,22.42
2019-03-21T17:07:43.541Z,22.42
2019-03-21T17:10:12.006Z,22.37
2019-03-21T17:12:40.818Z,22.36
2019-03-21T17:15:09.459Z,22.37
2019-03-21T17:17:37.879Z,22.39
2019-03-21T17:20:06.352Z,22.38
2019-03-21T17:22:34.790Z,22.37
2019-03-21T17:25:03.264Z,22.34
2019-03-21T17:27:31.685Z,22.35
2019-03-21T17:30:00.375Z,22.31
2019-03-21T17:32:28.866Z,22.33
2019-03-21T17:34:57.296Z,22.36
2019-03-21T17:37:25.719Z,22.27
2019-03-21T17:39:54.173Z,22.29
2019-03-21T17:42:22.716Z,22.32
2019-03-21T17:44:51.148Z,22.28
2019-03-21T17:47:19.556Z,22.29
2019-03-21T17:49:47.973Z,22.24
2019-03-21T17:52:16.398Z,22.25
2019-03-21T17:54:44.855Z,22.23
2019-03-21T17:57:13.315Z,22.24
2019-03-21T17:59:41.758Z,22.28
2019-03-21T18:02:10.216Z,22.25
2019-03-21T18:04:38.670Z,22.20
2019-03-21T18:07:07.120Z,22.23
2019-03-21T18:09:35.535Z,22.19
2019-03-21T18:12:04.072Z,22.16
2019-03-21T18:14:32.480Z,22.11
2019-03-21T18:17:00.923Z,22.12
2019-03-21T18:19:30.436Z,22.21
2019-03-21T18:22:02.084Z,22.19
2019-03-21T18:24:30.601Z,22.12
2019-03-21T18:26:59.037Z,22.17
2019-03-21T18:29:27.498Z,22.17
2019-03-21T18:31:55.929Z,22.19
2019-03-21T18:34:24.456Z,22.17
2019-03-21T18:36:52.983Z,22.18
2019-03-21T18:39:21.474Z,22.17
2019-03-21T18:41:49.897Z,22.16
2019-03-21T18:44:18.317Z,22.20
2019-03-21T18:46:46.710Z,22.22
2019-03-21T18:49:15.157Z,22.21
2019-03-21T18:51:43.556Z,22.22
2019-03-21T18:54:11.982Z,22.20
2019-03-21T18:56:59.209Z,22.20
2019-03-21T18:59:27.626Z,22.19
2019-03-21T19:01:58.740Z,22.19
2019-03-21T19:04:26.122Z,22.19
2019-03-21T19:06:54.586Z,22.16
2019-03-21T19:09:22.956Z,22.14
2019-03-21T19:11:51.382Z,22.15
2019-03-21T19:14:19.779Z,22.16
2019-03-21T19:16:48.186Z,22.14
2019-03-21T19:19:16.624Z,22.16
2019-03-21T19:21:45.024Z,22.15
2019-03-21T19:24:13.419Z,22.14
2019-03-21T19:26:41.857Z,22.16
2019-03-21T19:29:10.251Z,22.17
2019-03-21T19:31:38.676Z,22.20
2019-03-21T19:34:07.063Z,22.19
2019-03-21T19:36:35.471Z,22.17
2019-03-21T19:42:11.925Z,22.16
2019-03-21T19:44:40.328Z,22.14
2019-03-21T19:47:08.738Z,22.09
2019-03-21T19:52:10.716Z,22.04
2019-03-21T19:54:39.120Z,22.04
2019-03-21T19:57:07.515Z,22.03
2019-03-21T19:59:35.915Z,21.95
2019-03-21T20:02:04.321Z,21.94
2019-03-21T20:04:32.733Z,21.97
2019-03-21T20:07:19.947Z,21.97
2019-03-21T20:09:48.411Z,21.97
2019-03-21T20:12:35.724Z,21.95
2019-03-21T20:15:04.782Z,21.94
2019-03-21T20:17:33.134Z,21.92
2019-03-21T20:20:01.542Z,21.93
2019-03-21T20:22:29.949Z,21.92
2019-03-21T20:25:17.186Z,21.93
2019-03-21T20:27:45.606Z,21.94
2019-03-21T20:30:50.100Z,22.01
2019-03-21T20:33:37.320Z,21.93
2019-03-21T20:36:05.731Z,21.90
2019-03-21T20:38:34.172Z,21.92
2019-03-21T20:41:02.577Z,21.88
2019-03-21T20:43:30.980Z,21.90
2019-03-21T20:45:59.403Z,21.88
2019-03-21T20:48:46.624Z,21.86
2019-03-21T20:51:15.024Z,21.87
2019-03-21T20:53:43.431Z,21.88
2019-03-21T20:56:11.882Z,21.88
2019-03-21T20:58:40.259Z,21.87
2019-03-21T21:01:08.657Z,21.86
2019-03-21T21:03:37.059Z,21.87
2019-03-21T21:06:05.467Z,21.82
2019-03-21T21:08:33.914Z,21.79
2019-03-21T21:11:02.328Z,21.80
2019-03-21T21:13:30.746Z,21.79
2019-03-21T21:15:59.143Z,21.75
2019-03-21T21:18:27.558Z,21.76
2019-03-21T21:20:55.956Z,21.73
2019-03-21T21:23:24.402Z,21.75
2019-03-21T21:28:26.384Z,21.84
2019-03-21T21:30:54.816Z,21.80
2019-03-21T21:33:23.222Z,21.80
2019-03-21T21:35:51.646Z,21.81
2019-03-21T21:38:38.890Z,21.86
2019-03-21T21:41:07.328Z,21.80
2019-03-21T21:43:35.729Z,21.78
2019-03-21T21:46:23.095Z,21.78
2019-03-21T21:48:51.469Z,21.75
2019-03-21T21:51:19.881Z,21.76
2019-03-21T21:53:48.301Z,21.75
2019-03-21T21:56:17.750Z,21.76
2019-03-21T21:58:46.796Z,21.74
2019-03-21T22:01:15.246Z,21.71
2019-03-21T22:03:43.678Z,21.71
2019-03-21T22:06:12.075Z,21.71
2019-03-21T22:11:14.793Z,21.72
2019-03-21T22:13:43.214Z,21.46
2019-03-21T22:16:11.616Z,21.71
2019-03-21T22:18:40.025Z,21.69
2019-03-21T22:21:08.423Z,21.67
2019-03-21T22:23:36.834Z,21.69
2019-03-21T22:26:29.589Z,21.67
2019-03-21T22:29:13.031Z,21.66
2019-03-21T22:31:41.451Z,21.69
2019-03-21T22:34:09.876Z,21.67
2019-03-21T22:36:57.227Z,21.68
2019-03-21T22:39:25.648Z,21.66
2019-03-21T22:41:54.045Z,21.64
2019-03-21T22:44:22.455Z,21.69
2019-03-21T22:46:50.915Z,21.72
2019-03-21T22:49:19.332Z,21.70
2019-03-21T22:51:47.727Z,21.63
2019-03-21T22:54:16.129Z,21.37
2019-03-21T22:57:03.427Z,21.64
2019-03-21T22:59:31.833Z,21.68
2019-03-21T23:02:00.234Z,21.63
2019-03-21T23:04:28.645Z,21.62
2019-03-21T23:06:57.054Z,21.62
2019-03-21T23:09:25.469Z,21.64
2019-03-21T23:11:53.881Z,21.62
2019-03-21T23:14:22.297Z,21.57
2019-03-21T23:16:50.708Z,21.57
2019-03-21T23:19:19.109Z,21.56
2019-03-21T23:21:47.550Z,21.55
2019-03-21T23:24:15.948Z,21.60
2019-03-21T23:26:52.382Z,21.58
2019-03-21T23:29:14.396Z,21.53
2019-03-21T23:32:01.654Z,21.59
2019-03-21T23:34:30.074Z,21.60
2019-03-21T23:36:58.476Z,21.56
2019-03-21T23:39:26.888Z,21.56
2019-03-21T23:41:55.291Z,21.53
2019-03-21T23:44:23.698Z,21.54
2019-03-21T23:46:52.096Z,21.59
2019-03-21T23:49:20.501Z,21.49
2019-03-21T23:51:48.922Z,21.51
2019-03-21T23:54:36.237Z,21.53
2019-03-21T23:57:05.035Z,21.49
2019-03-21T23:59:34.733Z,21.49
